Time;durP1;ratioP1;P1;durP2;ratioP2;P2;SDS_P1;SDS_P2;PMS_P1;PMS_P2;Temp;Humidity;BMP_temperature;BMP_pressure;BME280_temperature;BME280_humidity;BME280_pressure;Samples;Min_cycle;Max_cycle;Signal;HPM_P1;HPM_P2
2021/12/23 00:04:33;;;;;;;60.27;26.63;;;;;;;-3.82;99.77;101303.54;3657462;79;99292;-86
2021/12/23 00:14:51;;;;;;;57.50;26.43;;;;;;;-3.86;99.83;101296.27;3674747;78;97961;-86
2021/12/23 00:25:06;;;;;;;58.33;25.47;;;;;;;-3.89;99.80;101286.84;3683197;78;99225;-86
2021/12/23 00:30:09;;;;;;;58.90;25.40;;;;;;;-3.88;99.87;101286.31;3669603;78;99260;-85
2021/12/23 00:35:11;;;;;;;56.40;25.23;;;;;;;-3.91;99.79;101275.55;3673105;77;99562;-85
2021/12/23 00:40:13;;;;;;;49.23;22.67;;;;;;;-3.91;99.92;101270.70;3667172;77;99243;-85
2021/12/23 00:45:14;;;;;;;60.07;27.47;;;;;;;-3.92;99.93;101261.84;3661298;78;27723;-86
2021/12/23 00:50:15;;;;;;;59.73;24.37;;;;;;;-3.94;99.87;101255.10;3661581;78;99429;-85
2021/12/23 00:55:16;;;;;;;59.00;25.40;;;;;;;-3.95;100.00;101252.94;3666295;79;99062;-86
2021/12/23 01:00:19;;;;;;;55.97;26.20;;;;;;;-3.93;100.00;101245.41;3616087;79;99434;-86
2021/12/23 01:05:22;;;;;;;59.17;26.43;;;;;;;-3.95;100.00;101251.59;3599799;80;99445;-85
2021/12/23 01:10:24;;;;;;;57.73;25.55;;;;;;;-3.95;100.00;101241.36;3607822;80;99711;-86
2021/12/23 01:20:34;;;;;;;;;;;;;;;-4.03;100.00;101240.53;3616219;80;99622;-85
2021/12/23 01:25:37;;;;;;;55.40;23.57;;;;;;;-4.04;100.00;101229.51;3623518;80;84380;-85
2021/12/23 01:30:39;;;;;;;59.67;25.83;;;;;;;-4.10;100.00;101230.00;3572728;79;99816;-85
2021/12/23 01:35:41;;;;;;;60.13;25.80;;;;;;;-4.12;100.00;101229.98;3516364;82;99452;-85
2021/12/23 01:40:46;;;;;;;61.77;28.23;;;;;;;-4.14;100.00;101214.11;3573620;80;99671;-85
2021/12/23 01:45:48;;;;;;;62.63;25.83;;;;;;;-4.17;100.00;101201.73;3602443;80;27205;-85
2021/12/23 01:50:49;;;;;;;58.57;25.50;;;;;;;-4.22;100.00;101199.02;3590700;80;99314;-85
2021/12/23 01:55:51;;;;;;;54.20;27.07;;;;;;;-4.26;100.00;101189.34;3594774;79;99583;-85
2021/12/23 02:00:52;;;;;;;63.27;27.30;;;;;;;-4.28;100.00;101183.42;3667749;78;99372;-85
2021/12/23 02:05:53;;;;;;;71.90;31.53;;;;;;;-4.32;100.00;101172.92;3680172;78;99772;-85
2021/12/23 02:10:59;;;;;;;77.83;35.73;;;;;;;-4.34;100.00;101162.98;3678883;78;99326;-85
2021/12/23 02:16:01;;;;;;;93.33;39.55;;;;;;;-4.37;100.00;101158.11;3705537;78;99502;-84
2021/12/23 02:21:05;;;;;;;84.30;40.00;;;;;;;-4.38;100.00;101145.75;3701309;78;99077;-84
2021/12/23 02:26:06;;;;;;;79.53;36.27;;;;;;;-4.39;100.00;101141.45;3711060;78;99183;-85
2021/12/23 02:31:07;;;;;;;75.77;32.23;;;;;;;-4.41;100.00;101136.89;3707972;78;99256;-85
2021/12/23 02:36:11;;;;;;;81.97;34.50;;;;;;;-4.42;100.00;101131.22;3627696;79;99851;-85
2021/12/23 02:41:11;;;;;;;71.70;31.33;;;;;;;-4.44;100.00;101126.66;3639353;78;99977;-84
2021/12/23 02:46:13;;;;;;;81.17;32.13;;;;;;;-4.47;100.00;101119.11;3637094;79;99442;-85
2021/12/23 02:51:16;;;;;;;71.73;32.73;;;;;;;-4.48;100.00;101118.84;3600377;79;99214;-84
2021/12/23 02:56:17;;;;;;;69.90;29.67;;;;;;;-4.51;100.00;101105.95;3709206;78;99116;-85
2021/12/23 03:01:21;;;;;;;64.73;30.10;;;;;;;-4.53;100.00;101099.22;3648797;77;99649;-84
2021/12/23 03:06:22;;;;;;;61.03;26.67;;;;;;;-4.56;100.00;101084.95;3654637;80;99463;-84
2021/12/23 03:11:27;;;;;;;59.90;27.50;;;;;;;-4.57;100.00;101084.17;3585429;79;99860;-85
2021/12/23 03:16:33;;;;;;;71.80;29.43;;;;;;;-4.59;100.00;101071.52;3635175;78;99878;-85
2021/12/23 03:21:35;;;;;;;67.20;29.73;;;;;;;-4.61;100.00;101061.58;3678931;78;98976;-84
2021/12/23 03:26:36;;;;;;;66.93;30.60;;;;;;;-4.63;100.00;101052.96;3665346;78;99122;-85
2021/12/23 03:31:38;;;;;;;63.47;28.83;;;;;;;-4.68;100.00;101049.46;3652387;79;99209;-84
2021/12/23 03:36:39;;;;;;;72.90;31.13;;;;;;;-4.70;100.00;101046.24;3668732;78;99434;-84
2021/12/23 03:41:39;;;;;;;71.57;29.57;;;;;;;-4.72;100.00;101041.13;3703924;78;99313;-85
2021/12/23 03:46:41;;;;;;;65.73;27.63;;;;;;;-4.74;100.00;101042.45;3663362;78;99371;-84
2021/12/23 03:51:42;;;;;;;62.62;28.75;;;;;;;-4.77;100.00;101036.25;3678169;78;98978;-84
2021/12/23 03:56:44;;;;;;;62.33;27.30;;;;;;;-4.77;100.00;101022.83;3684043;78;99579;-85
2021/12/23 04:01:45;;;;;;;63.63;29.03;;;;;;;-4.79;100.00;101012.90;3685200;78;99623;-85
2021/12/23 04:06:46;;;;;;;63.77;29.10;;;;;;;-4.80;100.00;101001.89;3689827;78;99901;-84
2021/12/23 04:11:47;;;;;;;57.97;24.97;;;;;;;-4.81;100.00;100999.73;3686382;78;99916;-85
2021/12/23 04:16:49;;;;;;;68.07;28.30;;;;;;;-4.80;100.00;100994.62;3695232;78;98525;-85
2021/12/23 04:21:50;;;;;;;58.90;27.40;;;;;;;-4.80;100.00;100985.23;3674014;78;98869;-85
2021/12/23 04:26:51;;;;;;;54.13;24.00;;;;;;;-4.80;100.00;100973.15;3696491;78;98279;-85
2021/12/23 04:31:52;;;;;;;64.60;26.70;;;;;;;-4.83;100.00;100950.88;3689180;78;99204;-84
2021/12/23 04:36:54;;;;;;;58.77;24.73;;;;;;;-4.80;100.00;100944.17;3666467;78;99753;-84
2021/12/23 04:41:55;;;;;;;58.77;24.37;;;;;;;-4.77;100.00;100936.39;3620764;80;99775;-84
2021/12/23 04:46:55;;;;;;;62.03;26.57;;;;;;;-4.77;100.00;100917.61;3689911;78;99707;-84
2021/12/23 04:51:56;;;;;;;62.93;26.10;;;;;;;-4.77;100.00;100920.29;3678454;78;101601;-84
2021/12/23 04:56:57;;;;;;;57.70;27.53;;;;;;;-4.77;100.00;100906.86;3664788;78;26356;-85
2021/12/23 05:01:58;;;;;;;65.43;28.33;;;;;;;-4.79;100.00;100888.06;3588816;80;99815;-85
2021/12/23 05:06:59;;;;;;;72.13;30.07;;;;;;;-4.75;100.00;100890.50;3611564;80;99496;-85
2021/12/23 05:12:00;;;;;;;54.80;26.40;;;;;;;-4.76;100.00;100877.59;3623410;79;99334;-84
2021/12/23 05:17:01;;;;;;;70.30;26.83;;;;;;;-4.72;100.00;100873.84;3629192;80;99500;-85
2021/12/23 05:22:03;;;;;;;56.90;27.60;;;;;;;-4.71;100.00;100875.45;3621434;80;99740;-84
2021/12/23 05:27:05;;;;;;;61.30;26.73;;;;;;;-4.68;100.00;100854.80;3593535;80;34855;-84
2021/12/23 05:32:07;;;;;;;63.20;27.17;;;;;;;-4.64;100.00;100849.17;3605313;79;99602;-84
2021/12/23 05:37:07;;;;;;;70.87;28.57;;;;;;;-4.63;100.00;100843.51;3614142;80;99793;-85
2021/12/23 05:42:08;;;;;;;69.33;30.10;;;;;;;-4.62;100.00;100830.37;3546610;81;99539;-84
2021/12/23 05:47:10;;;;;;;68.17;29.50;;;;;;;-4.57;100.00;100832.25;3632481;80;99352;-84
2021/12/23 05:52:11;;;;;;;64.67;30.37;;;;;;;-4.54;100.00;100827.14;3633231;80;99525;-84
2021/12/23 05:57:12;;;;;;;75.53;32.13;;;;;;;-4.49;100.00;100819.09;3651374;78;35164;-85
2021/12/23 06:02:13;;;;;;;67.10;31.07;;;;;;;-4.48;100.00;100815.33;3700132;78;100040;-85
2021/12/23 06:07:14;;;;;;;73.07;32.70;;;;;;;-4.45;100.00;100809.43;3713115;78;99751;-84
2021/12/23 06:12:15;;;;;;;69.57;32.17;;;;;;;-4.40;100.00;100812.64;3688563;77;99870;-84
2021/12/23 06:17:15;;;;;;;73.10;31.67;;;;;;;-4.38;100.00;100798.39;3707383;78;99747;-85
2021/12/23 06:22:18;;;;;;;62.54;28.86;;;;;;;-4.31;100.00;100804.31;3709075;77;99300;-84
2021/12/23 06:27:20;;;;;;;60.40;28.60;;;;;;;-4.28;100.00;100783.08;3704728;78;27113;-84
2021/12/23 06:32:21;;;;;;;65.12;28.77;;;;;;;-4.25;100.00;100792.48;3701400;78;99812;-84
2021/12/23 06:37:23;;;;;;;60.80;27.07;;;;;;;-4.20;100.00;100783.08;3701134;77;99240;-84
2021/12/23 06:42:23;;;;;;;66.07;29.13;;;;;;;-4.17;100.00;100782.52;3716123;76;99408;-84
2021/12/23 06:47:24;;;;;;;59.30;26.47;;;;;;;-4.15;100.00;100777.70;3713554;78;99795;-85
2021/12/23 06:52:25;;;;;;;70.03;30.37;;;;;;;-4.12;100.00;100758.33;3699446;77;99880;-84
2021/12/23 06:57:27;;;;;;;65.63;30.93;;;;;;;-4.08;100.00;100766.12;3700288;78;32493;-85
2021/12/23 07:02:28;;;;;;;89.63;38.70;;;;;;;-4.08;100.00;100752.16;3641397;78;99710;-85
2021/12/23 07:07:39;;;;;;;72.13;31.27;;;;;;;-4.06;100.00;100758.05;3648676;79;99233;-85
2021/12/23 07:12:32;;;;;;;58.43;27.23;;;;;;;-4.04;100.00;100747.03;3644145;79;99496;-85
2021/12/23 07:17:32;;;;;;;55.77;27.13;;;;;;;-4.01;100.00;100735.72;3569240;81;99475;-85
2021/12/23 07:22:34;;;;;;;66.00;29.92;;;;;;;-4.00;100.00;100746.20;3625902;79;99343;-85
2021/12/23 07:27:34;;;;;;;70.00;30.37;;;;;;;-3.96;100.00;100741.89;3654620;80;32422;-85
2021/12/23 07:32:35;;;;;;;69.27;31.17;;;;;;;-3.94;100.00;100728.97;3638132;80;99188;-84
2021/12/23 07:37:37;;;;;;;70.90;31.20;;;;;;;-3.88;100.00;100719.02;3625145;80;99836;-84
2021/12/23 07:42:38;;;;;;;72.80;33.87;;;;;;;-3.86;100.00;100714.98;3628115;80;99913;-85
2021/12/23 07:47:40;;;;;;;75.67;31.93;;;;;;;-3.84;99.75;100725.44;3630873;80;99398;-85
2021/12/23 07:52:41;;;;;;;80.23;35.80;;;;;;;-3.83;99.63;100721.70;3611239;80;99454;-85
2021/12/23 07:57:42;;;;;;;72.70;33.03;;;;;;;-3.80;99.85;100717.91;3640897;79;32950;-85
2021/12/23 08:02:43;;;;;;;73.50;31.63;;;;;;;-3.76;99.65;100719.50;3705391;78;99028;-85
2021/12/23 08:07:45;;;;;;;66.77;32.27;;;;;;;-3.72;99.75;100714.63;3703526;78;99024;-85
2021/12/23 08:12:45;;;;;;;63.97;28.73;;;;;;;-3.66;99.75;100708.14;3676729;77;99225;-85
2021/12/23 08:17:46;;;;;;;71.80;31.23;;;;;;;-3.64;99.69;100689.87;3657254;78;99201;-86
2021/12/23 08:22:47;;;;;;;67.80;30.55;;;;;;;-3.57;99.77;100687.66;3637155;80;99533;-85
2021/12/23 08:27:49;;;;;;;71.47;31.40;;;;;;;-3.52;99.47;100675.53;3686150;79;98774;-85
2021/12/23 08:32:50;;;;;;;76.57;32.93;;;;;;;-3.47;99.51;100683.58;3700516;78;98782;-86
2021/12/23 08:37:51;;;;;;;73.87;32.57;;;;;;;-3.40;99.56;100679.20;3624920;79;99182;-85
2021/12/23 08:42:56;;;;;;;68.03;29.67;;;;;;;-3.35;98.96;100661.16;3663465;78;99690;-86
2021/12/23 08:47:58;;;;;;;74.97;34.00;;;;;;;-3.29;98.91;100631.00;3673961;78;99908;-85
2021/12/23 08:53:00;;;;;;;60.80;28.63;;;;;;;-3.24;98.82;100626.89;3692546;77;99127;-86
2021/12/23 08:58:04;;;;;;;73.97;31.73;;;;;;;-3.19;98.71;100611.52;3709180;76;99163;-86
2021/12/23 09:03:10;;;;;;;67.75;30.48;;;;;;;-3.13;98.83;100594.77;3691200;77;31225;-85
2021/12/23 09:08:11;;;;;;;59.93;29.47;;;;;;;-3.09;98.55;100595.29;3678698;77;99447;-85
2021/12/23 09:13:12;;;;;;;55.93;27.60;;;;;;;-3.02;98.16;100603.02;3737447;77;99777;-85
2021/12/23 09:18:13;;;;;;;62.80;27.07;;;;;;;-2.99;98.00;100595.20;3721358;77;99227;-86
2021/12/23 09:23:16;;;;;;;63.15;28.40;;;;;;;-2.93;97.86;100571.17;3723262;77;98273;-86
2021/12/23 09:28:40;;;;;;;60.30;26.37;;;;;;;-2.88;97.53;100575.16;3686098;77;99235;-85
2021/12/23 09:33:31;;;;;;;61.73;27.73;;;;;;;-2.84;97.64;100565.97;3691951;77;28742;-86
2021/12/23 09:38:33;;;;;;;65.87;28.32;;;;;;;-2.81;97.48;100541.96;3644490;77;99425;-85
2021/12/23 09:43:36;;;;;;;69.47;31.63;;;;;;;-2.78;97.32;100518.48;3654442;78;98959;-86
2021/12/23 09:48:42;;;;;;;59.97;30.77;;;;;;;-2.72;96.99;100497.69;3662355;78;100084;-85
2021/12/23 09:53:47;;;;;;;66.35;29.27;;;;;;;-2.71;96.92;100492.02;3674863;78;99894;-86
2021/12/23 09:58:50;;;;;;;61.77;28.80;;;;;;;-2.66;96.94;100494.66;3651733;78;99242;-85
2021/12/23 10:03:51;;;;;;;66.30;28.47;;;;;;;-2.61;97.05;100488.39;3680446;78;30698;-85
2021/12/23 10:08:54;;;;;;;58.80;26.97;;;;;;;-2.55;97.16;100490.74;3669817;78;99394;-85
2021/12/23 10:41:13;;;;;;;171.83;66.50;;;;;;;-2.22;95.57;100417.50;3684600;78;99599;-84
2021/12/23 10:46:22;;;;;;;85.90;35.17;;;;;;;-2.13;95.54;100399.02;3646729;79;99665;-83
2021/12/23 10:51:23;;;;;;;83.70;34.85;;;;;;;-2.06;95.65;100385.98;3617388;79;99063;-84
2021/12/23 11:02:15;;;;;;;153.10;52.87;;;;;;;-1.92;95.08;100354.45;3652046;78;99651;-83
2021/12/23 11:07:22;;;;;;;66.92;28.35;;;;;;;-1.87;94.73;100331.44;3713298;77;99450;-84
2021/12/23 11:29:53;;;;;;;87.87;37.97;;;;;;;-1.73;93.93;100282.89;3710374;77;99155;-83
2021/12/23 11:44:30;;;;;;;67.20;28.53;;;;;;;-1.66;93.32;100255.77;3663992;78;99369;-84
2021/12/23 11:49:29;;;;;;;71.57;32.35;;;;;;;-1.61;93.26;100246.77;3670456;77;99208;-84
2021/12/23 11:54:41;;;;;;;63.30;26.95;;;;;;;-1.60;92.96;100239.73;3668612;78;99661;-84
2021/12/23 11:59:47;;;;;;;67.58;28.65;;;;;;;-1.61;92.52;100230.58;3660484;78;99203;-85
2021/12/23 12:04:54;;;;;;;74.17;30.83;;;;;;;-1.61;92.34;100229.23;3660198;77;99621;-84
2021/12/23 12:10:05;;;;;;;68.80;30.47;;;;;;;-1.63;92.56;100223.34;3656659;77;98845;-84
2021/12/23 12:15:07;;;;;;;70.73;31.27;;;;;;;-1.61;92.74;100214.39;3684802;77;99564;-84
2021/12/23 12:20:23;;;;;;;66.50;28.80;;;;;;;-1.60;92.89;100212.75;3667702;76;99661;-84
2021/12/23 12:25:30;;;;;;;67.40;31.27;;;;;;;-1.61;92.21;100185.52;3670764;78;99557;-86
2021/12/23 12:30:51;;;;;;;;;;;;;;;-1.61;92.34;100172.03;3670368;78;99365;-85
2021/12/23 12:36:10;;;;;;;56.37;27.13;;;;;;;-1.61;91.26;100173.39;3665661;76;84831;-85
2021/12/23 12:41:27;;;;;;;62.93;28.67;;;;;;;-1.63;91.90;100162.64;3719832;77;99783;-85
2021/12/23 12:46:37;;;;;;;54.43;27.63;;;;;;;-1.61;90.90;100147.75;3710781;77;99157;-85
2021/12/23 12:51:41;;;;;;;67.37;27.57;;;;;;;-1.61;91.61;100138.31;3698038;77;99377;-85
2021/12/23 12:56:48;;;;;;;;;;;;;;;-1.51;91.82;100135.93;3715726;77;99430;-86
2021/12/23 13:01:52;;;;;;;36.93;17.42;;;;;;;-1.45;91.76;100105.02;3706461;77;85178;-85
2021/12/23 13:06:56;;;;;;;60.77;27.33;;;;;;;-1.41;91.70;100108.17;3702223;77;99818;-85
2021/12/23 13:12:00;;;;;;;51.05;24.87;;;;;;;-1.42;91.10;100100.38;3712193;77;99712;-84
2021/12/23 13:17:02;;;;;;;54.47;25.97;;;;;;;-1.41;90.19;100103.31;3701655;77;99877;-86
2021/12/23 13:22:07;;;;;;;62.73;28.40;;;;;;;-1.45;90.57;100088.30;3710253;77;99479;-85
2021/12/23 13:27:08;;;;;;;62.20;27.43;;;;;;;-1.47;90.72;100066.23;3716561;77;99387;-85
2021/12/23 13:32:09;;;;;;;71.53;30.17;;;;;;;-1.47;90.72;100072.16;3708610;77;99516;-86
2021/12/23 13:37:10;;;;;;;65.43;30.17;;;;;;;-1.48;90.17;100065.17;3718681;77;99142;-87
2021/12/23 13:42:12;;;;;;;64.80;29.87;;;;;;;-1.50;90.53;100041.73;3662461;78;99122;-89
2021/12/23 13:47:19;;;;;;;58.20;27.03;;;;;;;-1.48;90.86;100028.75;3614351;79;99255;-84
2021/12/23 13:52:26;;;;;;;78.67;30.23;;;;;;;-1.47;90.76;100012.80;3603130;80;98651;-84
2021/12/23 13:57:39;;;;;;;61.00;27.27;;;;;;;-1.44;91.07;99999.48;3604135;80;99107;-84
2021/12/23 14:02:39;;;;;;;56.33;27.07;;;;;;;-1.41;91.02;99986.73;3668891;78;98957;-83
2021/12/23 14:07:46;;;;;;;62.97;28.47;;;;;;;-1.40;91.12;99986.16;3658496;78;99112;-83
2021/12/23 14:13:03;;;;;;;57.55;26.82;;;;;;;-1.39;91.05;99979.11;3662647;78;99378;-84
2021/12/23 14:18:18;;;;;;;90.10;38.80;;;;;;;-1.38;91.26;99964.51;3676486;77;99115;-83
2021/12/23 14:23:22;;;;;;;68.97;30.20;;;;;;;-1.39;90.72;99952.12;3679664;78;99047;-83
2021/12/23 14:28:38;;;;;;;;;;;;;;;-1.41;90.92;99931.41;3667364;78;99100;-85
2021/12/23 14:33:52;;;;;;;75.80;32.63;;;;;;;-1.42;90.62;99918.22;3662280;78;85007;-83
2021/12/23 14:39:10;;;;;;;79.50;32.57;;;;;;;-1.45;90.77;99923.69;3671911;77;99152;-84
2021/12/23 14:44:21;;;;;;;86.20;32.47;;;;;;;-1.46;90.82;99909.14;3648663;79;98695;-83
2021/12/23 14:55:00;;;;;;;73.77;30.33;;;;;;;-1.49;90.83;99893.59;3643744;79;99431;-83
2021/12/23 15:00:13;;;;;;;72.47;29.70;;;;;;;-1.50;91.12;99893.33;3628087;79;99122;-83
2021/12/23 15:05:18;;;;;;;57.10;25.83;;;;;;;-1.51;91.35;99889.84;3630942;79;99377;-86
2021/12/23 15:10:38;;;;;;;53.75;25.57;;;;;;;-1.52;91.59;99886.91;3625953;79;98779;-84
2021/12/23 15:15:40;;;;;;;107.33;42.83;;;;;;;-1.54;91.80;99871.56;3634448;79;98603;-84
2021/12/23 15:20:50;;;;;;;81.12;31.82;;;;;;;-1.50;92.03;99879.83;3636144;79;99405;-85
2021/12/23 15:25:51;;;;;;;117.10;45.63;;;;;;;-1.49;92.32;99858.52;3643751;79;99156;-85
2021/12/23 15:30:52;;;;;;;132.30;52.67;;;;;;;-1.46;92.35;99848.43;3640057;79;99138;-85
2021/12/23 15:35:54;;;;;;;70.37;33.73;;;;;;;-1.46;92.28;99841.14;3634242;79;99249;-84
2021/12/23 15:40:55;;;;;;;71.02;33.10;;;;;;;-1.47;92.36;99839.56;3650495;78;99152;-84
2021/12/23 15:45:56;;;;;;;65.60;30.50;;;;;;;-1.44;92.45;99843.50;3669714;78;26455;-84
2021/12/23 15:51:00;;;;;;;64.67;27.87;;;;;;;-1.41;92.22;99842.89;3623248;78;98875;-82
2021/12/23 15:56:01;;;;;;;70.80;31.57;;;;;;;-1.41;92.45;99827.52;3676131;78;99302;-84
2021/12/23 16:01:02;;;;;;;71.77;32.20;;;;;;;-1.39;92.54;99836.62;3660720;78;99620;-83
2021/12/23 16:11:22;;;;;;;57.77;28.93;;;;;;;-1.37;92.61;99823.06;3662482;78;99550;-84
2021/12/23 16:16:24;;;;;;;65.30;29.43;;;;;;;-1.36;92.68;99817.12;3671600;78;26246;-84
2021/12/23 16:21:27;;;;;;;63.23;31.30;;;;;;;-1.34;92.78;99808.14;3659405;78;98894;-83
2021/12/23 16:26:27;;;;;;;69.10;32.30;;;;;;;-1.33;92.84;99792.99;3666775;78;98870;-84
2021/12/23 16:31:30;;;;;;;66.80;30.37;;;;;;;-1.31;92.76;99784.02;3657542;78;99082;-84
2021/12/23 16:36:31;;;;;;;59.97;29.23;;;;;;;-1.29;92.84;99773.72;3637504;78;99347;-84
2021/12/23 16:41:32;;;;;;;73.12;33.73;;;;;;;-1.27;92.98;99746.42;3689565;77;98954;-84
2021/12/23 16:46:33;;;;;;;84.43;38.10;;;;;;;-1.23;93.08;99752.76;3720185;77;25903;-84
2021/12/23 16:51:34;;;;;;;65.83;33.60;;;;;;;-1.19;93.13;99736.17;3700790;77;99194;-83
2021/12/23 17:01:54;;;;;;;72.10;32.85;;;;;;;-1.16;93.18;99705.86;3700123;77;99043;-83
2021/12/23 17:06:55;;;;;;;68.27;31.67;;;;;;;-1.12;93.13;99712.19;3719419;77;99051;-83
2021/12/23 17:11:57;;;;;;;80.83;37.20;;;;;;;-1.11;93.17;99689.52;3713071;77;98997;-84
2021/12/23 17:16:58;;;;;;;71.47;37.47;;;;;;;-1.08;92.95;99675.36;3707504;77;99587;-83
2021/12/23 17:21:59;;;;;;;86.97;36.40;;;;;;;-1.08;92.65;99672.66;3695631;76;98826;-85
2021/12/23 17:27:04;;;;;;;96.85;36.93;;;;;;;-1.07;92.70;99664.79;3706377;76;98832;-85
2021/12/23 17:32:06;;;;;;;74.20;32.40;;;;;;;-1.07;92.45;99654.80;3705347;77;100054;-85
2021/12/23 17:39:39;;;;;;;82.42;33.58;;;;;;;-1.00;92.01;99645.65;3750153;76;25900;-84
2021/12/23 17:44:42;;;;;;;73.52;34.63;;;;;;;-1.03;91.87;99635.50;3627650;79;98920;-82
2021/12/23 17:49:45;;;;;;;77.08;34.15;;;;;;;-1.03;91.91;99627.41;3635755;78;99470;-81
2021/12/23 17:54:48;;;;;;;65.97;31.35;;;;;;;-1.04;92.67;99620.97;3666034;79;99775;-83
2021/12/23 17:59:49;;;;;;;70.75;32.85;;;;;;;-1.07;93.42;99616.19;3662144;78;99115;-82
2021/12/23 18:04:51;;;;;;;69.10;33.10;;;;;;;-1.10;94.32;99591.20;3693822;78;99620;-82
2021/12/23 18:09:53;;;;;;;62.23;28.77;;;;;;;-1.16;95.40;99586.52;3661399;78;98572;-83
2021/12/23 18:14:54;;;;;;;65.73;31.13;;;;;;;-1.19;96.48;99563.41;3651606;78;98929;-79
2021/12/23 18:19:56;;;;;;;61.50;29.47;;;;;;;-1.23;97.15;99555.72;3646454;78;99086;-83
2021/12/23 18:24:58;;;;;;;63.87;28.10;;;;;;;-1.26;97.62;99528.80;3650281;78;99077;-82
2021/12/23 18:29:59;;;;;;;73.97;33.73;;;;;;;-1.30;98.30;99514.39;3692315;78;99123;-82
2021/12/23 18:35:01;;;;;;;69.17;32.70;;;;;;;-1.32;98.84;99500.41;3689277;78;99029;-83
2021/12/23 18:40:05;;;;;;;75.60;33.53;;;;;;;-1.31;98.98;99484.44;3592548;80;98657;-83
2021/12/23 18:45:08;;;;;;;72.90;34.43;;;;;;;-1.31;99.37;99478.27;3605457;80;99257;-84
2021/12/23 18:50:10;;;;;;;74.92;35.70;;;;;;;-1.30;99.82;99451.52;3584134;81;99595;-81
2021/12/23 18:55:12;;;;;;;74.77;33.83;;;;;;;-1.32;100.00;99449.12;3574391;81;99026;-82
2021/12/23 19:00:22;;;;;;;66.33;32.33;;;;;;;-1.31;100.00;99442.61;3558458;81;99157;-83
2021/12/23 19:05:29;;;;;;;70.10;33.40;;;;;;;-1.29;100.00;99435.00;3520439;82;99548;-84
2021/12/23 19:10:30;;;;;;;63.10;30.93;;;;;;;-1.28;100.00;99433.88;3540319;81;99015;-85
2021/12/23 19:15:31;;;;;;;69.90;31.68;;;;;;;-1.27;100.00;99417.92;3569603;81;99377;-85
2021/12/23 19:20:32;;;;;;;69.70;33.97;;;;;;;-1.27;100.00;99414.45;3532141;81;99498;-83
2021/12/23 19:25:35;;;;;;;74.47;35.60;;;;;;;-1.29;100.00;99413.96;3582582;80;99469;-83
2021/12/23 19:30:36;;;;;;;66.00;31.65;;;;;;;-1.28;100.00;99403.39;3597132;80;99252;-82
2021/12/23 19:35:38;;;;;;;67.37;33.73;;;;;;;-1.29;100.00;99389.67;3580503;80;99469;-82
2021/12/23 19:40:39;;;;;;;75.57;35.63;;;;;;;-1.28;100.00;99377.20;3656560;78;99232;-83
2021/12/23 19:45:42;;;;;;;68.43;33.77;;;;;;;-1.27;100.00;99366.64;3662315;79;99417;-87
2021/12/23 19:50:48;;;;;;;69.23;33.00;;;;;;;-1.26;100.00;99360.70;3642070;79;99095;-86
2021/12/23 19:55:48;;;;;;;71.33;33.73;;;;;;;-1.26;100.00;99347.98;3671387;79;99556;-86
2021/12/23 20:00:49;;;;;;;72.35;34.25;;;;;;;-1.23;100.00;99343.84;3658762;79;99383;-85
2021/12/23 20:05:51;;;;;;;75.63;35.70;;;;;;;-1.22;100.00;99328.67;3660876;78;99600;-86
2021/12/23 20:10:53;;;;;;;73.83;36.33;;;;;;;-1.19;100.00;99317.24;3646464;79;99604;-85
2021/12/23 20:15:56;;;;;;;76.65;36.30;;;;;;;-1.16;100.00;99299.60;3664336;79;30390;-86
2021/12/23 20:20:59;;;;;;;72.70;33.55;;;;;;;-1.13;100.00;99282.73;3650153;78;99576;-85
2021/12/23 20:25:59;;;;;;;66.10;30.48;;;;;;;-1.11;100.00;99285.34;3663307;79;99181;-86
2021/12/23 20:31:03;;;;;;;68.33;33.33;;;;;;;-1.07;100.00;99274.12;3638159;79;99325;-85
2021/12/23 20:36:05;;;;;;;71.77;31.77;;;;;;;-1.08;100.00;99248.25;3652778;78;99278;-85
2021/12/23 20:41:06;;;;;;;63.02;31.55;;;;;;;-1.08;100.00;99239.35;3631288;79;99547;-85
2021/12/23 20:46:09;;;;;;;63.27;31.37;;;;;;;-1.06;100.00;99232.51;3647809;79;35324;-84
2021/12/23 20:51:10;;;;;;;67.32;32.75;;;;;;;-1.07;100.00;99219.33;3541135;81;99406;-84
2021/12/23 20:56:12;;;;;;;64.93;34.33;;;;;;;-1.09;100.00;99204.80;3566487;81;99467;-85
2021/12/23 21:01:15;;;;;;;75.45;36.13;;;;;;;-1.06;100.00;99202.01;3562009;82;99264;-85
2021/12/23 21:06:16;;;;;;;67.45;33.33;;;;;;;-1.06;100.00;99186.61;3562459;81;99815;-86
2021/12/23 21:11:19;;;;;;;75.03;36.23;;;;;;;-1.06;100.00;99179.06;3530176;81;99242;-86
2021/12/23 21:16:20;;;;;;;68.92;33.45;;;;;;;-1.06;100.00;99156.11;3520177;82;31384;-87
2021/12/23 21:21:21;;;;;;;72.27;33.03;;;;;;;-1.06;100.00;99160.16;3555620;81;99037;-88
2021/12/23 21:26:23;;;;;;;72.33;35.87;;;;;;;-1.07;100.00;99140.50;3524246;82;98985;-85
2021/12/23 21:31:24;;;;;;;74.00;33.67;;;;;;;-1.07;100.00;99132.40;3520570;82;99256;-86
2021/12/23 21:36:27;;;;;;;72.43;32.63;;;;;;;-1.06;100.00;99114.27;3514440;81;99533;-86
2021/12/23 21:41:52;;;;;;;70.60;33.65;;;;;;;-1.04;100.00;99106.07;3585037;80;99565;-87
2021/12/23 21:46:52;;;;;;;63.50;31.65;;;;;;;-1.03;100.00;99089.33;3364685;85;99870;-85
2021/12/23 21:51:53;;;;;;;64.47;31.37;;;;;;;-1.03;100.00;99074.48;3453762;84;98689;-86
2021/12/23 21:56:54;;;;;;;64.40;32.20;;;;;;;-1.02;100.00;99072.00;3469123;82;99107;-86
2021/12/23 22:01:56;;;;;;;65.13;30.90;;;;;;;-1.00;100.00;99057.63;3455093;83;99237;-86
2021/12/23 22:06:57;;;;;;;61.77;32.73;;;;;;;-0.97;100.00;99045.59;3452316;84;99287;-87
2021/12/23 22:11:58;;;;;;;63.30;30.13;;;;;;;-0.95;100.00;99036.59;3459565;83;99172;-87
2021/12/23 22:17:01;;;;;;;65.63;30.07;;;;;;;-0.91;100.00;99031.30;3469394;83;99998;-86
2021/12/23 22:22:05;;;;;;;58.47;29.13;;;;;;;-0.90;100.00;99017.47;3450236;83;98789;-85
2021/12/23 22:27:06;;;;;;;61.00;30.30;;;;;;;-0.88;100.00;99019.84;3411710;84;99095;-89
2021/12/23 22:32:07;;;;;;;65.12;32.17;;;;;;;-0.86;100.00;99004.88;3393394;85;98972;-87
2021/12/23 22:37:08;;;;;;;58.50;29.33;;;;;;;-0.84;100.00;98987.77;3480576;83;99638;-88
2021/12/23 22:42:09;;;;;;;60.37;30.17;;;;;;;-0.79;100.00;98993.50;3442352;84;99749;-88
2021/12/23 22:47:11;;;;;;;55.50;28.00;;;;;;;-0.77;100.00;98993.39;3431204;84;99036;-88
2021/12/23 22:52:12;;;;;;;60.60;30.60;;;;;;;-0.74;100.00;98977.88;3429333;84;98736;-89
2021/12/23 22:57:13;;;;;;;60.87;28.27;;;;;;;-0.70;100.00;98964.48;3404047;85;98889;-88
2021/12/23 23:02:15;;;;;;;61.33;29.57;;;;;;;-0.66;100.00;98962.10;3430353;84;99018;-87
2021/12/23 23:07:17;;;;;;;61.77;32.03;;;;;;;-0.65;100.00;98955.60;3434079;84;99009;-88
2021/12/23 23:12:18;;;;;;;62.63;31.33;;;;;;;-0.62;100.00;98937.34;3428239;84;99149;-87
2021/12/23 23:17:20;;;;;;;57.35;29.52;;;;;;;-0.60;100.00;98937.02;3400381;85;99044;-89
2021/12/23 23:22:22;;;;;;;56.02;29.15;;;;;;;-0.60;100.00;98910.77;3402004;85;99199;-89
2021/12/23 23:27:30;;;;;;;61.35;33.35;;;;;;;-0.58;100.00;98911.78;3405796;85;99000;-86
2021/12/23 23:38:40;;;;;;;55.88;27.90;;;;;;;-0.55;100.00;98896.27;3398139;85;98702;-88
2021/12/23 23:43:30;;;;;;;58.13;29.53;;;;;;;-0.52;100.00;98887.46;3443090;83;99079;-89
2021/12/23 23:48:29;;;;;;;61.58;29.65;;;;;;;-0.48;100.00;98878.91;3457239;83;99074;-88
2021/12/23 23:53:30;;;;;;;59.70;29.40;;;;;;;-0.47;100.00;98869.66;3464139;85;99398;-88
2021/12/23 23:58:38;;;;;;;59.67;30.72;;;;;;;-0.44;100.00;98870.34;3462751;84;98584;-89
